の過去48時間の天気

Nome, Nome Airport

現在時刻: 9/22 10:27 AKDT (9/22 18:27 UTC) 以下の時間は現地時間です。

過去48時間のMETAR気象情報
時間 風向 風速(m/s) 視程 気温(℃) 湿度(%) 気圧(hPa) 天気現象
22 09:53 西北西 2 10km以上 5 79 1008.6
22 08:53 静穏 0 10km以上 4.4 79 1008.5
22 07:53 静穏 0 10km以上 2.8 85 1008.6
22 06:53 西 2 10km以上 3.3 82 1008.6
22 05:53 静穏 0 10km以上 2.8 85 1008.7
22 04:53 静穏 0 10km以上 1.1 88 1008.7
22 03:53 静穏 0 10km以上 1.7 82 1008.8
22 02:53 北西 2 10km以上 2.2 82 1008.6
22 01:53 西南西 3 10km以上 2.8 82 1008.6
22 00:53 西北西 3 10km以上 3.9 76 1008.7
21 23:53 3 10km以上 2.8 72 1008.3
21 22:53 北西 4 10km以上 3.3 70 1007.9
21 21:53 6 10km以上 3.9 70 1007.5
21 20:53 5 10km以上 5.6 67 1007.1
21 19:53 6 10km以上 7.8 58 1006.9
21 18:53 6 10km以上 9.4 56 1006.8
21 17:53 3 10km以上 10 56 1006.8
21 16:53 北北東 2 10km以上 10 54 1006.8
21 15:53 西北西 2 10km以上 10 56 1006.9
21 14:53 4 10km以上 9.4 59 1006.8
21 13:53 3 10km以上 9.4 59 1006.8
21 12:53 北東 4 10km以上 8.9 61 1007
21 11:53 北北東 4 10km以上 7.8 65 1006.9
21 10:53 5 10km以上 6.1 73 1006.8
21 09:53 西北西 3 10km以上 4.4 83 1006.6
21 08:53 西北西 5 10km以上 4.4 79 1006.2
21 07:53 北北西 3 10km以上 4.4 83 1006
21 06:53 北北西 2 10km以上 5 79 1005.8
21 05:53 北北東 3 10km以上 5 79 1005.6
21 04:53 西北西 3 10km以上 2.8 85 1005.6
21 03:53 北北東 2 10km以上 5 79 1005.5
21 02:53 4 10km以上 4.4 79 1005.3
21 01:53 北北西 3 10km以上 5 82 1005.3
21 00:53 静穏 0 10km以上 5.6 82 1005.3
20 23:53 2 10km以上 5 86 1005.2
20 22:53 2 10km以上 5.6 82 1005
20 21:53 静穏 0 10km以上 6.7 79 1005
20 21:12 静穏 0 10km以上 7.2 74 1005
20 20:53 静穏 0 10km以上 7.2 74 1004.6
20 20:19 静穏 0 10km以上 7.2 74 1004
20 20:01 静穏 0 10km以上 7.2 71 1004
20 19:32 静穏 0 10km以上 7.2 71 1005
20 18:53 不定 2 10km以上 7.2 71 1004.6
20 18:45 2 10km以上 7.2 71 1005
20 17:53 南西 2 10km以上 7.2 71 1004.7
20 17:41 静穏 0 10km以上 7.2 71 1005
20 16:53 南南西 2 10km以上 6.7 70 1004.9
20 15:53 南西 3 10km以上 7.2 71 1005.2
20 14:53 3 10km以上 7.2 76 1005.3
20 13:53 3 10km以上 6.7 79 1005.5
20 12:53 静穏 0 10km以上 5.6 82 1005.7
20 11:53 静穏 0 10km以上 3.9 86 1005.7
20 10:53 西 2 10km以上 0.6 88 1005.7
PAOM 221753Z 30004KT 10SM FEW060 BKN110 05/02 A2978 RMK AO2 SLP086 T00500017 10050 20011 53000
PAOM 221653Z 00000KT 10SM OVC110 04/01 A2978 RMK AO2 SLP085 T00440011
PAOM 221553Z 00000KT 10SM OVC120 03/01 A2979 RMK AO2 SLP086 T00280006
PAOM 221453Z AUTO 27003KT 10SM OVC120 03/01 A2978 RMK AO2 SLP086 T00330006 58003 TSNO
PAOM 221353Z AUTO 00000KT 10SM OVC080 03/01 A2979 RMK AO2 SLP087 T00280006 TSNO
PAOM 221253Z AUTO 00000KT 10SM CLR 01/M01 A2979 RMK AO2 SLP087 T00111006 TSNO
PAOM 221153Z AUTO 00000KT 10SM CLR 02/M01 A2979 RMK AO2 SLP088 T00171011 10050 20011 53001 TSNO
PAOM 221053Z AUTO 32003KT 10SM CLR 02/M01 A2978 RMK AO2 SLP086 T00221006 TSNO
PAOM 220953Z AUTO 25005KT 10SM CLR 03/00 A2979 RMK AO2 SLP086 T00280000 TSNO
PAOM 220853Z AUTO 29005KT 10SM FEW060 04/00 A2979 RMK AO2 SLP087 T00390000 401060022 52012 TSNO
PAOM 220753Z AUTO 35006KT 10SM BKN080 03/M02 A2978 RMK AO2 SLP083 T00281017 TSNO
PAOM 220653Z AUTO 32007KT 10SM CLR 03/M02 A2976 RMK AO2 SLP079 T00331017 TSNO
PAOM 220553Z 35011KT 10SM CLR 04/M01 A2975 RMK AO2 SLP075 T00391011 10106 20039 53007
PAOM 220453Z 36009KT 10SM CLR 06/00 A2974 RMK AO2 SLP071 T00560000
PAOM 220353Z 36011KT 10SM FEW040 08/00 A2973 RMK AO2 SLP069 T00780000
PAOM 220253Z 35012KT 10SM SCT037 09/01 A2973 RMK AO2 SLP068 T00940011 56001
PAOM 220153Z 01006KT 10SM BKN037 10/02 A2973 RMK AO2 SLP068 T01000017
PAOM 220053Z 03004KT 10SM BKN036 10/01 A2973 RMK AO2 SLP068 T01000011
PAOM 212353Z 30004KT 10SM BKN037 10/02 A2973 RMK AO2 SLP069 T01000017 10106 20044 55001
PAOM 212253Z 35007KT 10SM BKN035 09/02 A2973 RMK AO2 SLP068 T00940017
PAOM 212153Z 09006KT 10SM SCT032 09/02 A2973 RMK AO2 SLP068 T00940017
PAOM 212053Z 04008KT 10SM SCT029 09/02 A2974 RMK AO2 SLP070 T00890017 51004
PAOM 211953Z 03008KT 10SM SCT045 08/02 A2974 RMK AO2 SLP069 T00780017
PAOM 211853Z 36009KT 10SM SCT047 06/02 A2973 RMK AO2 SLP068 T00610017
PAOM 211753Z 30005KT 10SM SCT044 04/02 A2972 RMK AO2 SLP066 T00440017 10061 20028 53007
PAOM 211653Z 30010KT 10SM FEW044 SCT055 04/01 A2971 RMK AO2 SLP062 T00440011
PAOM 211553Z 33006KT 10SM SCT060 04/02 A2971 RMK AO2 SLP060 T00440017
PAOM 211453Z AUTO 33003KT 10SM OVC055 05/02 A2970 RMK AO2 SLP058 T00500017 53003 TSNO
PAOM 211353Z AUTO 02006KT 10SM OVC055 05/02 A2970 RMK AO2 SLP056 T00500017 TSNO
PAOM 211253Z AUTO 30005KT 10SM SCT040 BKN070 03/01 A2970 RMK AO2 CIG 041 NE SLP056 T00280006 TSNO
PAOM 211153Z AUTO 02004KT 10SM SCT060 05/02 A2969 RMK AO2 SLP055 T00500017 10067 20039 53003 TSNO
PAOM 211053Z AUTO 01007KT 10SM SCT055 BKN100 04/01 A2969 RMK AO2 SLP053 T00440011 TSNO
PAOM 210953Z AUTO 34006KT 10SM SCT036 OVC100 05/02 A2969 RMK AO2 SLP053 T00500022 TSNO
PAOM 210853Z AUTO 00000KT 10SM OVC032 06/03 A2969 RMK AO2 SLP053 T00560028 400721017 53003 TSNO
PAOM 210753Z AUTO 35004KT 10SM OVC100 05/03 A2968 RMK AO2 SLP052 T00500028 TSNO
PAOM 210653Z AUTO 01003KT 10SM FEW037 OVC100 06/03 A2968 RMK AO2 SLP050 T00560028 TSNO
PAOM 210553Z 00000KT 10SM SCT027 BKN040 OVC047 07/03 A2968 RMK AO2 SLP050 T00670033 10072 20067 53005
PAOM 210512Z 00000KT 10SM BKN028 OVC034 07/03 A2967 RMK AO2 T00720028
PAOM 210453Z 00000KT 10SM OVC032 07/03 A2967 RMK AO2 SLP046 T00720028
PAOM 210419Z 00000KT 10SM OVC030 07/03 A2966 RMK AO2 T00720028
PAOM 210401Z 00000KT 10SM OVC029 07/02 A2966 RMK AO2 T00720022
PAOM 210332Z 00000KT 10SM OVC029 07/02 A2967 RMK AO2 T00720022
PAOM 210253Z VRB03KT 10SM SCT032 OVC100 07/02 A2967 RMK AO2 SLP046 T00720022 56006
PAOM 210245Z 19003KT 10SM SCT031 OVC100 07/02 A2967 RMK AO2 T00720022
PAOM 210153Z 23003KT 10SM OVC029 07/02 A2967 RMK AO2 SLP047 T00720022
PAOM 210141Z 00000KT 10SM BKN029 BKN085 OVC100 07/02 A2967 RMK AO2 T00720022
PAOM 210053Z 20003KT 10SM OVC100 07/02 A2968 RMK AO2 SLP049 T00670017
PAOM 202353Z 23005KT 10SM OVC100 07/02 A2968 RMK AO2 SLP052 T00720022 10072 21006 56005
PAOM 202253Z 19005KT 10SM SCT023 OVC110 07/03 A2969 RMK AO2 SLP053 T00720033
PAOM 202153Z 17005KT 10SM SCT015 BKN110 07/03 A2969 RMK AO2 SLP055 T00670033
PAOM 202053Z 00000KT 10SM FEW016 BKN100 06/03 A2970 RMK AO2 SLP057 T00560028 51002
PAOM 201953Z 00000KT 10SM BKN100 04/02 A2970 RMK AO2 SLP057 T00390017
PAOM 201853Z COR 26003KT 10SM BKN100 01/M01 A2970 RMK AO2 SLP057 T00061011